sensor_id;sensor_type;location;lat;lon;timestamp;P1;durP1;ratioP1;P2;durP2;ratioP2
55037;SDS011;40937;53.594;10.034;2023-02-28T00:00:55;6.18;;;2.97;;
55037;SDS011;40937;53.594;10.034;2023-02-28T00:03:23;5.88;;;2.80;;
55037;SDS011;40937;53.594;10.034;2023-02-28T00:05:50;9.25;;;3.15;;
55037;SDS011;40937;53.594;10.034;2023-02-28T00:08:17;6.35;;;3.45;;
55037;SDS011;40937;53.594;10.034;2023-02-28T00:10:44;7.47;;;2.83;;
55037;SDS011;40937;53.594;10.034;2023-02-28T00:13:13;5.55;;;2.80;;
55037;SDS011;40937;53.594;10.034;2023-02-28T00:15:41;9.60;;;3.58;;
55037;SDS011;40937;53.594;10.034;2023-02-28T00:18:08;6.10;;;2.92;;
55037;SDS011;40937;53.594;10.034;2023-02-28T00:20:35;5.55;;;2.95;;
55037;SDS011;40937;53.594;10.034;2023-02-28T00:23:03;7.80;;;3.13;;
55037;SDS011;40937;53.594;10.034;2023-02-28T00:25:30;6.78;;;4.03;;
55037;SDS011;40937;53.594;10.034;2023-02-28T00:27:57;4.85;;;3.08;;
55037;SDS011;40937;53.594;10.034;2023-02-28T00:30:26;6.93;;;3.53;;
55037;SDS011;40937;53.594;10.034;2023-02-28T00:32:53;7.38;;;3.58;;
55037;SDS011;40937;53.594;10.034;2023-02-28T00:35:21;11.23;;;4.65;;
55037;SDS011;40937;53.594;10.034;2023-02-28T00:37:48;6.25;;;3.13;;
55037;SDS011;40937;53.594;10.034;2023-02-28T00:40:16;5.85;;;3.05;;
55037;SDS011;40937;53.594;10.034;2023-02-28T00:42:43;8.70;;;3.30;;
55037;SDS011;40937;53.594;10.034;2023-02-28T00:45:10;5.82;;;3.08;;
55037;SDS011;40937;53.594;10.034;2023-02-28T00:47:39;10.25;;;3.63;;
55037;SDS011;40937;53.594;10.034;2023-02-28T00:50:06;7.82;;;3.35;;
55037;SDS011;40937;53.594;10.034;2023-02-28T00:52:36;3.78;;;3.13;;
55037;SDS011;40937;53.594;10.034;2023-02-28T00:55:03;6.47;;;2.92;;
55037;SDS011;40937;53.594;10.034;2023-02-28T00:57:32;5.05;;;3.47;;
55037;SDS011;40937;53.594;10.034;2023-02-28T00:59:59;4.85;;;3.03;;
55037;SDS011;40937;53.594;10.034;2023-02-28T01:02:27;7.57;;;3.60;;
55037;SDS011;40937;53.594;10.034;2023-02-28T01:04:55;6.95;;;3.20;;
55037;SDS011;40937;53.594;10.034;2023-02-28T01:07:23;5.32;;;3.78;;
55037;SDS011;40937;53.594;10.034;2023-02-28T01:09:50;6.93;;;3.65;;
55037;SDS011;40937;53.594;10.034;2023-02-28T01:12:17;9.65;;;3.22;;
55037;SDS011;40937;53.594;10.034;2023-02-28T01:14:46;4.70;;;3.20;;
55037;SDS011;40937;53.594;10.034;2023-02-28T01:17:13;3.75;;;2.72;;
55037;SDS011;40937;53.594;10.034;2023-02-28T01:19:40;4.10;;;2.85;;
55037;SDS011;40937;53.594;10.034;2023-02-28T01:22:10;6.63;;;3.25;;
55037;SDS011;40937;53.594;10.034;2023-02-28T01:24:37;3.00;;;2.70;;
55037;SDS011;40937;53.594;10.034;2023-02-28T01:27:05;5.85;;;2.38;;
55037;SDS011;40937;53.594;10.034;2023-02-28T01:29:32;5.13;;;3.10;;
55037;SDS011;40937;53.594;10.034;2023-02-28T01:31:59;4.43;;;2.95;;
55037;SDS011;40937;53.594;10.034;2023-02-28T01:34:26;7.63;;;3.13;;
55037;SDS011;40937;53.594;10.034;2023-02-28T01:36:53;6.00;;;2.97;;
55037;SDS011;40937;53.594;10.034;2023-02-28T01:39:22;5.30;;;3.17;;
55037;SDS011;40937;53.594;10.034;2023-02-28T01:41:49;6.93;;;2.97;;
55037;SDS011;40937;53.594;10.034;2023-02-28T01:47:22;4.85;;;2.63;;
55037;SDS011;40937;53.594;10.034;2023-02-28T01:49:51;5.93;;;2.53;;
55037;SDS011;40937;53.594;10.034;2023-02-28T01:52:19;3.45;;;2.55;;
55037;SDS011;40937;53.594;10.034;2023-02-28T01:54:50;3.95;;;2.50;;
55037;SDS011;40937;53.594;10.034;2023-02-28T01:57:19;5.05;;;2.70;;
55037;SDS011;40937;53.594;10.034;2023-02-28T01:59:50;7.28;;;2.90;;
55037;SDS011;40937;53.594;10.034;2023-02-28T02:02:20;6.10;;;2.35;;
55037;SDS011;40937;53.594;10.034;2023-02-28T02:04:50;4.70;;;3.10;;
55037;SDS011;40937;53.594;10.034;2023-02-28T02:07:21;6.47;;;3.03;;
55037;SDS011;40937;53.594;10.034;2023-02-28T02:09:50;7.90;;;3.25;;
55037;SDS011;40937;53.594;10.034;2023-02-28T02:12:25;4.55;;;2.85;;
55037;SDS011;40937;53.594;10.034;2023-02-28T02:15:03;8.13;;;3.58;;
55037;SDS011;40937;53.594;10.034;2023-02-28T02:17:36;5.65;;;3.08;;
55037;SDS011;40937;53.594;10.034;2023-02-28T02:20:16;6.70;;;3.45;;
55037;SDS011;40937;53.594;10.034;2023-02-28T02:25:50;3.85;;;2.92;;
55037;SDS011;40937;53.594;10.034;2023-02-28T02:28:35;4.28;;;3.17;;
55037;SDS011;40937;53.594;10.034;2023-02-28T02:34:28;4.30;;;3.03;;
55037;SDS011;40937;53.594;10.034;2023-02-28T02:37:04;10.27;;;3.17;;
55037;SDS011;40937;53.594;10.034;2023-02-28T02:39:40;5.75;;;3.20;;
55037;SDS011;40937;53.594;10.034;2023-02-28T02:42:16;6.15;;;3.38;;
55037;SDS011;40937;53.594;10.034;2023-02-28T02:44:51;8.38;;;3.40;;
55037;SDS011;40937;53.594;10.034;2023-02-28T02:47:26;6.50;;;3.13;;
55037;SDS011;40937;53.594;10.034;2023-02-28T02:49:59;6.53;;;3.22;;
55037;SDS011;40937;53.594;10.034;2023-02-28T02:52:34;6.13;;;3.00;;
55037;SDS011;40937;53.594;10.034;2023-02-28T02:55:06;6.72;;;3.70;;
55037;SDS011;40937;53.594;10.034;2023-02-28T02:57:38;4.68;;;3.53;;
55037;SDS011;40937;53.594;10.034;2023-02-28T03:00:10;5.95;;;3.45;;
55037;SDS011;40937;53.594;10.034;2023-02-28T03:02:40;7.13;;;3.28;;
55037;SDS011;40937;53.594;10.034;2023-02-28T03:05:14;6.72;;;3.10;;
55037;SDS011;40937;53.594;10.034;2023-02-28T03:07:48;6.13;;;3.75;;
55037;SDS011;40937;53.594;10.034;2023-02-28T03:10:26;8.07;;;3.38;;
55037;SDS011;40937;53.594;10.034;2023-02-28T03:19:03;4.80;;;3.80;;
55037;SDS011;40937;53.594;10.034;2023-02-28T03:21:52;5.78;;;3.38;;
55037;SDS011;40937;53.594;10.034;2023-02-28T03:24:30;6.22;;;3.75;;
55037;SDS011;40937;53.594;10.034;2023-02-28T03:27:04;5.50;;;3.80;;
55037;SDS011;40937;53.594;10.034;2023-02-28T03:29:37;6.45;;;3.95;;
55037;SDS011;40937;53.594;10.034;2023-02-28T03:32:08;6.38;;;3.88;;
55037;SDS011;40937;53.594;10.034;2023-02-28T03:34:44;6.78;;;4.10;;
55037;SDS011;40937;53.594;10.034;2023-02-28T03:37:18;9.40;;;3.42;;
55037;SDS011;40937;53.594;10.034;2023-02-28T03:39:49;6.65;;;4.22;;
55037;SDS011;40937;53.594;10.034;2023-02-28T03:42:23;5.20;;;4.18;;
55037;SDS011;40937;53.594;10.034;2023-02-28T03:44:54;5.03;;;4.18;;
55037;SDS011;40937;53.594;10.034;2023-02-28T03:47:26;4.80;;;4.10;;
55037;SDS011;40937;53.594;10.034;2023-02-28T03:49:59;5.65;;;4.00;;
55037;SDS011;40937;53.594;10.034;2023-02-28T03:52:34;8.45;;;4.50;;
55037;SDS011;40937;53.594;10.034;2023-02-28T03:55:03;6.70;;;4.60;;
55037;SDS011;40937;53.594;10.034;2023-02-28T03:57:36;8.60;;;5.35;;
55037;SDS011;40937;53.594;10.034;2023-02-28T04:00:08;13.05;;;5.43;;
55037;SDS011;40937;53.594;10.034;2023-02-28T04:02:39;6.05;;;4.00;;
55037;SDS011;40937;53.594;10.034;2023-02-28T04:05:06;7.25;;;4.65;;
55037;SDS011;40937;53.594;10.034;2023-02-28T04:07:36;5.80;;;4.72;;
55037;SDS011;40937;53.594;10.034;2023-02-28T04:10:04;8.88;;;4.57;;
55037;SDS011;40937;53.594;10.034;2023-02-28T04:12:32;7.43;;;4.47;;
55037;SDS011;40937;53.594;10.034;2023-02-28T04:14:59;6.63;;;4.60;;
55037;SDS011;40937;53.594;10.034;2023-02-28T04:17:26;8.13;;;4.35;;
55037;SDS011;40937;53.594;10.034;2023-02-28T04:19:53;8.82;;;4.55;;
55037;SDS011;40937;53.594;10.034;2023-02-28T04:22:23;9.35;;;5.13;;
55037;SDS011;40937;53.594;10.034;2023-02-28T04:24:53;8.93;;;4.45;;
55037;SDS011;40937;53.594;10.034;2023-02-28T04:27:21;8.48;;;4.90;;
55037;SDS011;40937;53.594;10.034;2023-02-28T04:29:48;7.00;;;4.68;;
55037;SDS011;40937;53.594;10.034;2023-02-28T04:32:15;14.60;;;4.35;;
55037;SDS011;40937;53.594;10.034;2023-02-28T04:34:42;5.57;;;5.00;;
55037;SDS011;40937;53.594;10.034;2023-02-28T04:37:09;10.65;;;4.97;;
55037;SDS011;40937;53.594;10.034;2023-02-28T04:39:38;6.97;;;4.50;;
55037;SDS011;40937;53.594;10.034;2023-02-28T04:42:06;7.80;;;5.75;;
55037;SDS011;40937;53.594;10.034;2023-02-28T04:44:34;8.00;;;4.90;;
55037;SDS011;40937;53.594;10.034;2023-02-28T04:47:01;5.60;;;4.60;;
55037;SDS011;40937;53.594;10.034;2023-02-28T04:49:28;11.00;;;5.28;;
55037;SDS011;40937;53.594;10.034;2023-02-28T04:51:55;10.30;;;5.20;;
55037;SDS011;40937;53.594;10.034;2023-02-28T04:54:23;8.38;;;5.13;;
55037;SDS011;40937;53.594;10.034;2023-02-28T04:56:50;6.07;;;5.00;;
55037;SDS011;40937;53.594;10.034;2023-02-28T04:59:18;7.45;;;5.22;;
55037;SDS011;40937;53.594;10.034;2023-02-28T05:01:46;8.90;;;5.00;;
55037;SDS011;40937;53.594;10.034;2023-02-28T05:04:14;7.97;;;5.15;;
55037;SDS011;40937;53.594;10.034;2023-02-28T05:06:41;6.38;;;5.07;;
55037;SDS011;40937;53.594;10.034;2023-02-28T05:09:09;7.40;;;5.00;;
55037;SDS011;40937;53.594;10.034;2023-02-28T05:11:37;7.65;;;4.55;;
55037;SDS011;40937;53.594;10.034;2023-02-28T05:14:09;11.85;;;5.05;;
55037;SDS011;40937;53.594;10.034;2023-02-28T05:16:40;10.60;;;5.57;;
55037;SDS011;40937;53.594;10.034;2023-02-28T05:19:07;8.57;;;5.30;;
55037;SDS011;40937;53.594;10.034;2023-02-28T05:21:35;6.60;;;5.03;;
55037;SDS011;40937;53.594;10.034;2023-02-28T05:24:05;6.97;;;5.28;;
55037;SDS011;40937;53.594;10.034;2023-02-28T05:26:34;8.98;;;5.82;;
55037;SDS011;40937;53.594;10.034;2023-02-28T05:29:02;11.02;;;6.68;;
55037;SDS011;40937;53.594;10.034;2023-02-28T05:31:29;9.50;;;6.22;;
55037;SDS011;40937;53.594;10.034;2023-02-28T05:33:57;8.55;;;5.85;;
55037;SDS011;40937;53.594;10.034;2023-02-28T05:36:25;6.88;;;5.68;;
55037;SDS011;40937;53.594;10.034;2023-02-28T05:38:52;7.72;;;5.50;;
55037;SDS011;40937;53.594;10.034;2023-02-28T05:41:19;10.50;;;6.43;;
55037;SDS011;40937;53.594;10.034;2023-02-28T05:43:47;7.53;;;5.40;;
55037;SDS011;40937;53.594;10.034;2023-02-28T05:46:15;10.57;;;6.28;;
55037;SDS011;40937;53.594;10.034;2023-02-28T05:48:45;9.13;;;6.10;;
55037;SDS011;40937;53.594;10.034;2023-02-28T05:51:15;8.25;;;6.18;;
55037;SDS011;40937;53.594;10.034;2023-02-28T05:53:43;8.00;;;5.97;;
55037;SDS011;40937;53.594;10.034;2023-02-28T05:56:10;10.60;;;6.38;;
55037;SDS011;40937;53.594;10.034;2023-02-28T05:58:38;8.98;;;6.00;;
55037;SDS011;40937;53.594;10.034;2023-02-28T06:01:18;15.38;;;7.05;;
55037;SDS011;40937;53.594;10.034;2023-02-28T06:03:47;11.57;;;6.70;;
55037;SDS011;40937;53.594;10.034;2023-02-28T06:06:16;14.40;;;6.63;;
55037;SDS011;40937;53.594;10.034;2023-02-28T06:08:43;11.85;;;6.25;;
55037;SDS011;40937;53.594;10.034;2023-02-28T06:11:11;7.72;;;6.03;;
55037;SDS011;40937;53.594;10.034;2023-02-28T06:13:38;6.53;;;5.68;;
55037;SDS011;40937;53.594;10.034;2023-02-28T06:16:10;9.70;;;7.43;;
55037;SDS011;40937;53.594;10.034;2023-02-28T06:18:38;9.68;;;7.10;;
55037;SDS011;40937;53.594;10.034;2023-02-28T06:21:05;10.82;;;6.20;;
55037;SDS011;40937;53.594;10.034;2023-02-28T06:23:33;11.50;;;6.63;;
55037;SDS011;40937;53.594;10.034;2023-02-28T06:26:01;9.25;;;6.22;;
55037;SDS011;40937;53.594;10.034;2023-02-28T06:28:28;20.85;;;7.30;;
55037;SDS011;40937;53.594;10.034;2023-02-28T06:30:55;11.10;;;8.70;;
55037;SDS011;40937;53.594;10.034;2023-02-28T06:33:22;7.88;;;6.90;;
55037;SDS011;40937;53.594;10.034;2023-02-28T06:35:51;11.02;;;7.50;;
55037;SDS011;40937;53.594;10.034;2023-02-28T06:38:18;14.38;;;7.35;;
55037;SDS011;40937;53.594;10.034;2023-02-28T06:40:53;10.70;;;6.85;;
55037;SDS011;40937;53.594;10.034;2023-02-28T06:43:21;9.43;;;6.82;;
55037;SDS011;40937;53.594;10.034;2023-02-28T06:45:48;10.77;;;6.85;;
55037;SDS011;40937;53.594;10.034;2023-02-28T06:48:16;14.60;;;7.35;;
55037;SDS011;40937;53.594;10.034;2023-02-28T06:50:44;18.00;;;7.40;;
55037;SDS011;40937;53.594;10.034;2023-02-28T06:53:12;12.73;;;7.53;;
55037;SDS011;40937;53.594;10.034;2023-02-28T06:55:40;9.48;;;6.55;;
55037;SDS011;40937;53.594;10.034;2023-02-28T06:58:09;17.92;;;6.70;;
55037;SDS011;40937;53.594;10.034;2023-02-28T07:00:41;10.35;;;7.53;;
55037;SDS011;40937;53.594;10.034;2023-02-28T07:03:09;12.65;;;6.80;;
55037;SDS011;40937;53.594;10.034;2023-02-28T07:05:36;13.45;;;6.95;;
55037;SDS011;40937;53.594;10.034;2023-02-28T07:08:05;10.60;;;7.75;;
55037;SDS011;40937;53.594;10.034;2023-02-28T07:10:33;17.35;;;8.32;;
55037;SDS011;40937;53.594;10.034;2023-02-28T07:13:00;11.90;;;7.20;;
55037;SDS011;40937;53.594;10.034;2023-02-28T07:15:29;11.95;;;7.38;;
55037;SDS011;40937;53.594;10.034;2023-02-28T07:17:56;17.42;;;8.25;;
55037;SDS011;40937;53.594;10.034;2023-02-28T07:20:23;14.77;;;6.97;;
55037;SDS011;40937;53.594;10.034;2023-02-28T07:22:51;13.27;;;7.93;;
55037;SDS011;40937;53.594;10.034;2023-02-28T07:25:22;16.23;;;7.00;;
55037;SDS011;40937;53.594;10.034;2023-02-28T07:27:49;11.25;;;7.05;;
55037;SDS011;40937;53.594;10.034;2023-02-28T07:30:17;11.13;;;8.45;;
55037;SDS011;40937;53.594;10.034;2023-02-28T07:32:46;24.42;;;9.32;;
55037;SDS011;40937;53.594;10.034;2023-02-28T07:35:13;10.75;;;8.00;;
55037;SDS011;40937;53.594;10.034;2023-02-28T07:37:41;18.17;;;7.97;;
55037;SDS011;40937;53.594;10.034;2023-02-28T07:40:10;19.52;;;8.65;;
55037;SDS011;40937;53.594;10.034;2023-02-28T07:42:38;27.98;;;8.85;;
55037;SDS011;40937;53.594;10.034;2023-02-28T07:45:07;12.60;;;7.38;;
55037;SDS011;40937;53.594;10.034;2023-02-28T07:47:37;10.32;;;7.90;;
55037;SDS011;40937;53.594;10.034;2023-02-28T07:50:06;15.75;;;7.65;;
55037;SDS011;40937;53.594;10.034;2023-02-28T07:52:35;19.40;;;8.27;;
55037;SDS011;40937;53.594;10.034;2023-02-28T07:55:03;14.02;;;8.20;;
55037;SDS011;40937;53.594;10.034;2023-02-28T07:57:31;19.55;;;8.15;;
55037;SDS011;40937;53.594;10.034;2023-02-28T07:59:58;13.00;;;8.55;;
55037;SDS011;40937;53.594;10.034;2023-02-28T08:02:25;17.08;;;8.30;;
55037;SDS011;40937;53.594;10.034;2023-02-28T08:04:52;19.10;;;8.50;;
55037;SDS011;40937;53.594;10.034;2023-02-28T08:07:21;16.30;;;8.50;;
55037;SDS011;40937;53.594;10.034;2023-02-28T08:09:48;13.20;;;8.70;;
55037;SDS011;40937;53.594;10.034;2023-02-28T08:12:15;26.92;;;9.35;;
55037;SDS011;40937;53.594;10.034;2023-02-28T08:14:43;14.50;;;9.23;;
55037;SDS011;40937;53.594;10.034;2023-02-28T08:17:10;13.70;;;8.57;;
55037;SDS011;40937;53.594;10.034;2023-02-28T08:19:38;17.70;;;8.30;;
55037;SDS011;40937;53.594;10.034;2023-02-28T08:22:05;19.75;;;9.07;;
55037;SDS011;40937;53.594;10.034;2023-02-28T08:24:34;13.77;;;8.55;;
55037;SDS011;40937;53.594;10.034;2023-02-28T08:27:02;11.15;;;7.70;;
55037;SDS011;40937;53.594;10.034;2023-02-28T08:29:29;20.13;;;7.97;;
55037;SDS011;40937;53.594;10.034;2023-02-28T08:31:56;11.02;;;8.50;;
55037;SDS011;40937;53.594;10.034;2023-02-28T08:34:24;12.55;;;7.63;;
55037;SDS011;40937;53.594;10.034;2023-02-28T08:36:51;12.15;;;8.00;;
55037;SDS011;40937;53.594;10.034;2023-02-28T08:39:19;12.30;;;7.75;;
55037;SDS011;40937;53.594;10.034;2023-02-28T08:41:48;18.40;;;7.35;;
55037;SDS011;40937;53.594;10.034;2023-02-28T08:44:15;16.73;;;8.10;;
55037;SDS011;40937;53.594;10.034;2023-02-28T08:46:42;18.60;;;7.53;;
55037;SDS011;40937;53.594;10.034;2023-02-28T08:49:10;16.15;;;6.95;;
55037;SDS011;40937;53.594;10.034;2023-02-28T08:51:38;13.40;;;7.68;;
55037;SDS011;40937;53.594;10.034;2023-02-28T08:54:05;13.65;;;7.10;;
55037;SDS011;40937;53.594;10.034;2023-02-28T08:56:32;16.90;;;5.75;;
55037;SDS011;40937;53.594;10.034;2023-02-28T08:59:01;20.92;;;6.13;;
55037;SDS011;40937;53.594;10.034;2023-02-28T09:01:28;12.52;;;5.93;;
55037;SDS011;40937;53.594;10.034;2023-02-28T09:03:57;12.13;;;5.38;;
55037;SDS011;40937;53.594;10.034;2023-02-28T09:06:25;6.30;;;4.70;;
55037;SDS011;40937;53.594;10.034;2023-02-28T09:08:55;10.98;;;5.40;;
55037;SDS011;40937;53.594;10.034;2023-02-28T09:11:25;7.97;;;4.82;;
55037;SDS011;40937;53.594;10.034;2023-02-28T09:13:52;9.27;;;4.82;;
55037;SDS011;40937;53.594;10.034;2023-02-28T09:16:22;6.55;;;4.05;;
55037;SDS011;40937;53.594;10.034;2023-02-28T09:18:50;9.38;;;4.60;;
55037;SDS011;40937;53.594;10.034;2023-02-28T09:21:17;7.65;;;4.00;;
55037;SDS011;40937;53.594;10.034;2023-02-28T09:23:46;6.30;;;3.92;;
55037;SDS011;40937;53.594;10.034;2023-02-28T09:26:15;5.63;;;3.80;;
55037;SDS011;40937;53.594;10.034;2023-02-28T09:28:43;5.20;;;3.47;;
55037;SDS011;40937;53.594;10.034;2023-02-28T09:31:12;8.57;;;3.65;;
55037;SDS011;40937;53.594;10.034;2023-02-28T09:33:42;6.75;;;3.75;;
55037;SDS011;40937;53.594;10.034;2023-02-28T09:36:09;8.25;;;3.60;;
55037;SDS011;40937;53.594;10.034;2023-02-28T09:38:36;6.45;;;2.38;;
55037;SDS011;40937;53.594;10.034;2023-02-28T09:41:08;4.05;;;2.60;;
55037;SDS011;40937;53.594;10.034;2023-02-28T09:43:40;3.72;;;2.50;;
55037;SDS011;40937;53.594;10.034;2023-02-28T09:46:14;7.00;;;2.25;;
55037;SDS011;40937;53.594;10.034;2023-02-28T09:48:56;3.83;;;2.20;;
55037;SDS011;40937;53.594;10.034;2023-02-28T09:51:28;3.28;;;2.03;;
55037;SDS011;40937;53.594;10.034;2023-02-28T09:54:01;5.13;;;1.67;;
55037;SDS011;40937;53.594;10.034;2023-02-28T09:56:30;5.28;;;1.95;;
55037;SDS011;40937;53.594;10.034;2023-02-28T09:59:04;2.65;;;1.92;;
55037;SDS011;40937;53.594;10.034;2023-02-28T10:01:42;2.65;;;2.42;;
55037;SDS011;40937;53.594;10.034;2023-02-28T10:04:25;3.55;;;2.17;;
55037;SDS011;40937;53.594;10.034;2023-02-28T10:07:03;3.10;;;2.05;;
55037;SDS011;40937;53.594;10.034;2023-02-28T10:09:43;4.30;;;2.45;;
55037;SDS011;40937;53.594;10.034;2023-02-28T10:12:13;4.65;;;2.30;;
55037;SDS011;40937;53.594;10.034;2023-02-28T10:14:44;3.70;;;1.70;;
55037;SDS011;40937;53.594;10.034;2023-02-28T10:17:14;4.85;;;2.50;;
55037;SDS011;40937;53.594;10.034;2023-02-28T10:19:49;3.08;;;2.30;;
55037;SDS011;40937;53.594;10.034;2023-02-28T10:22:27;5.25;;;2.10;;
55037;SDS011;40937;53.594;10.034;2023-02-28T10:24:59;4.07;;;2.50;;
55037;SDS011;40937;53.594;10.034;2023-02-28T10:27:29;4.00;;;2.05;;
55037;SDS011;40937;53.594;10.034;2023-02-28T10:29:58;3.03;;;1.88;;
55037;SDS011;40937;53.594;10.034;2023-02-28T10:32:27;4.07;;;2.28;;
55037;SDS011;40937;53.594;10.034;2023-02-28T10:34:59;2.92;;;2.13;;
55037;SDS011;40937;53.594;10.034;2023-02-28T10:37:30;4.38;;;2.22;;
55037;SDS011;40937;53.594;10.034;2023-02-28T10:39:57;8.05;;;1.90;;
55037;SDS011;40937;53.594;10.034;2023-02-28T10:42:25;2.97;;;1.80;;
55037;SDS011;40937;53.594;10.034;2023-02-28T10:47:42;3.95;;;1.92;;
55037;SDS011;40937;53.594;10.034;2023-02-28T10:50:29;4.28;;;2.17;;
55037;SDS011;40937;53.594;10.034;2023-02-28T10:55:44;4.18;;;2.35;;
55037;SDS011;40937;53.594;10.034;2023-02-28T10:58:20;2.72;;;1.60;;
55037;SDS011;40937;53.594;10.034;2023-02-28T11:00:48;2.30;;;1.55;;
55037;SDS011;40937;53.594;10.034;2023-02-28T11:03:29;3.45;;;2.20;;
55037;SDS011;40937;53.594;10.034;2023-02-28T11:06:03;7.50;;;1.83;;
55037;SDS011;40937;53.594;10.034;2023-02-28T11:08:32;2.42;;;2.05;;
55037;SDS011;40937;53.594;10.034;2023-02-28T11:11:01;3.25;;;2.00;;
55037;SDS011;40937;53.594;10.034;2023-02-28T11:13:32;8.75;;;2.08;;
55037;SDS011;40937;53.594;10.034;2023-02-28T11:16:02;2.40;;;1.73;;
55037;SDS011;40937;53.594;10.034;2023-02-28T11:18:33;5.05;;;1.50;;
55037;SDS011;40937;53.594;10.034;2023-02-28T11:21:08;7.13;;;2.33;;
55037;SDS011;40937;53.594;10.034;2023-02-28T11:23:39;2.85;;;2.10;;
55037;SDS011;40937;53.594;10.034;2023-02-28T11:26:07;7.75;;;2.38;;
55037;SDS011;40937;53.594;10.034;2023-02-28T11:28:37;4.40;;;2.53;;
55037;SDS011;40937;53.594;10.034;2023-02-28T11:31:14;2.70;;;2.50;;
55037;SDS011;40937;53.594;10.034;2023-02-28T11:33:45;6.90;;;2.20;;
55037;SDS011;40937;53.594;10.034;2023-02-28T11:36:18;2.22;;;2.03;;
55037;SDS011;40937;53.594;10.034;2023-02-28T11:38:47;2.78;;;1.92;;
55037;SDS011;40937;53.594;10.034;2023-02-28T11:41:22;1.98;;;1.85;;
55037;SDS011;40937;53.594;10.034;2023-02-28T11:44:10;2.28;;;2.08;;
55037;SDS011;40937;53.594;10.034;2023-02-28T11:46:56;5.03;;;2.95;;
55037;SDS011;40937;53.594;10.034;2023-02-28T11:49:30;4.82;;;2.33;;
55037;SDS011;40937;53.594;10.034;2023-02-28T11:52:05;3.47;;;1.98;;
55037;SDS011;40937;53.594;10.034;2023-02-28T12:00:35;5.90;;;3.45;;
55037;SDS011;40937;53.594;10.034;2023-02-28T12:03:16;7.00;;;3.33;;
55037;SDS011;40937;53.594;10.034;2023-02-28T12:05:53;4.45;;;2.35;;
55037;SDS011;40937;53.594;10.034;2023-02-28T12:08:36;2.63;;;2.05;;
55037;SDS011;40937;53.594;10.034;2023-02-28T12:11:23;6.38;;;2.40;;
55037;SDS011;40937;53.594;10.034;2023-02-28T12:14:01;4.45;;;2.50;;
55037;SDS011;40937;53.594;10.034;2023-02-28T12:16:45;6.53;;;2.72;;
55037;SDS011;40937;53.594;10.034;2023-02-28T12:19:20;3.25;;;2.58;;
55037;SDS011;40937;53.594;10.034;2023-02-28T12:24:53;3.30;;;2.92;;
55037;SDS011;40937;53.594;10.034;2023-02-28T12:27:29;3.40;;;2.78;;
55037;SDS011;40937;53.594;10.034;2023-02-28T12:30:01;2.80;;;2.55;;
55037;SDS011;40937;53.594;10.034;2023-02-28T12:32:33;2.77;;;2.47;;
55037;SDS011;40937;53.594;10.034;2023-02-28T12:35:04;2.63;;;2.42;;
55037;SDS011;40937;53.594;10.034;2023-02-28T12:37:38;4.72;;;3.17;;
55037;SDS011;40937;53.594;10.034;2023-02-28T12:40:11;8.68;;;2.80;;
55037;SDS011;40937;53.594;10.034;2023-02-28T12:42:45;4.18;;;2.28;;
55037;SDS011;40937;53.594;10.034;2023-02-28T12:45:17;6.55;;;3.05;;
55037;SDS011;40937;53.594;10.034;2023-02-28T12:47:46;3.17;;;2.45;;
55037;SDS011;40937;53.594;10.034;2023-02-28T12:50:17;3.38;;;2.55;;
55037;SDS011;40937;53.594;10.034;2023-02-28T12:52:48;5.25;;;2.85;;
55037;SDS011;40937;53.594;10.034;2023-02-28T12:55:23;10.02;;;3.05;;
55037;SDS011;40937;53.594;10.034;2023-02-28T12:57:58;4.65;;;2.40;;
55037;SDS011;40937;53.594;10.034;2023-02-28T13:00:35;3.63;;;3.03;;
55037;SDS011;40937;53.594;10.034;2023-02-28T13:03:12;2.88;;;2.63;;
55037;SDS011;40937;53.594;10.034;2023-02-28T13:11:33;11.63;;;2.83;;
55037;SDS011;40937;53.594;10.034;2023-02-28T13:14:15;5.28;;;2.53;;
55037;SDS011;40937;53.594;10.034;2023-02-28T13:17:00;5.95;;;2.60;;
55037;SDS011;40937;53.594;10.034;2023-02-28T13:19:37;4.32;;;2.75;;
55037;SDS011;40937;53.594;10.034;2023-02-28T13:22:09;7.70;;;2.90;;
55037;SDS011;40937;53.594;10.034;2023-02-28T13:24:45;10.63;;;3.10;;
55037;SDS011;40937;53.594;10.034;2023-02-28T13:33:17;3.67;;;2.28;;
55037;SDS011;40937;53.594;10.034;2023-02-28T13:35:55;8.38;;;3.55;;
55037;SDS011;40937;53.594;10.034;2023-02-28T13:38:35;6.10;;;2.80;;
55037;SDS011;40937;53.594;10.034;2023-02-28T13:44:12;6.65;;;3.05;;
55037;SDS011;40937;53.594;10.034;2023-02-28T13:49:47;12.82;;;2.95;;
55037;SDS011;40937;53.594;10.034;2023-02-28T13:52:18;3.80;;;2.70;;
55037;SDS011;40937;53.594;10.034;2023-02-28T13:57:57;4.43;;;2.83;;
55037;SDS011;40937;53.594;10.034;2023-02-28T14:00:42;7.43;;;3.45;;
55037;SDS011;40937;53.594;10.034;2023-02-28T14:03:26;12.45;;;3.38;;
55037;SDS011;40937;53.594;10.034;2023-02-28T14:06:08;10.25;;;3.20;;
55037;SDS011;40937;53.594;10.034;2023-02-28T14:08:45;2.63;;;2.30;;
55037;SDS011;40937;53.594;10.034;2023-02-28T14:11:25;3.47;;;2.97;;
55037;SDS011;40937;53.594;10.034;2023-02-28T14:13:55;3.42;;;3.13;;
55037;SDS011;40937;53.594;10.034;2023-02-28T14:16:24;3.47;;;2.80;;
55037;SDS011;40937;53.594;10.034;2023-02-28T14:18:55;4.65;;;2.58;;
55037;SDS011;40937;53.594;10.034;2023-02-28T14:21:25;4.53;;;2.80;;
55037;SDS011;40937;53.594;10.034;2023-02-28T14:27:19;5.93;;;3.10;;
55037;SDS011;40937;53.594;10.034;2023-02-28T14:33:21;5.53;;;3.00;;
55037;SDS011;40937;53.594;10.034;2023-02-28T14:35:56;8.45;;;3.13;;
55037;SDS011;40937;53.594;10.034;2023-02-28T14:38:30;8.68;;;3.30;;
55037;SDS011;40937;53.594;10.034;2023-02-28T14:41:03;3.33;;;2.90;;
55037;SDS011;40937;53.594;10.034;2023-02-28T14:43:33;3.35;;;2.28;;
55037;SDS011;40937;53.594;10.034;2023-02-28T14:46:01;3.22;;;2.72;;
55037;SDS011;40937;53.594;10.034;2023-02-28T14:48:32;4.43;;;2.75;;
55037;SDS011;40937;53.594;10.034;2023-02-28T14:51:00;2.50;;;2.30;;
55037;SDS011;40937;53.594;10.034;2023-02-28T14:53:28;3.97;;;2.35;;
55037;SDS011;40937;53.594;10.034;2023-02-28T14:55:57;4.40;;;2.70;;
55037;SDS011;40937;53.594;10.034;2023-02-28T14:58:26;7.95;;;2.85;;
55037;SDS011;40937;53.594;10.034;2023-02-28T15:00:55;7.05;;;3.40;;
55037;SDS011;40937;53.594;10.034;2023-02-28T15:03:25;2.65;;;2.45;;
55037;SDS011;40937;53.594;10.034;2023-02-28T15:06:00;4.55;;;2.63;;
55037;SDS011;40937;53.594;10.034;2023-02-28T15:08:29;4.95;;;2.42;;
55037;SDS011;40937;53.594;10.034;2023-02-28T15:11:02;2.53;;;2.33;;
55037;SDS011;40937;53.594;10.034;2023-02-28T15:13:33;2.70;;;2.50;;
55037;SDS011;40937;53.594;10.034;2023-02-28T15:16:04;2.43;;;2.23;;
55037;SDS011;40937;53.594;10.034;2023-02-28T15:21:12;5.13;;;2.30;;
55037;SDS011;40937;53.594;10.034;2023-02-28T15:23:42;3.47;;;1.77;;
55037;SDS011;40937;53.594;10.034;2023-02-28T15:26:12;3.90;;;2.38;;
55037;SDS011;40937;53.594;10.034;2023-02-28T15:28:42;3.67;;;2.22;;
55037;SDS011;40937;53.594;10.034;2023-02-28T15:31:20;5.80;;;2.33;;
55037;SDS011;40937;53.594;10.034;2023-02-28T15:33:53;2.85;;;2.10;;
55037;SDS011;40937;53.594;10.034;2023-02-28T15:36:25;3.55;;;2.40;;
55037;SDS011;40937;53.594;10.034;2023-02-28T15:38:55;2.45;;;2.17;;
55037;SDS011;40937;53.594;10.034;2023-02-28T15:41:27;4.78;;;2.45;;
55037;SDS011;40937;53.594;10.034;2023-02-28T15:44:14;3.03;;;2.60;;
55037;SDS011;40937;53.594;10.034;2023-02-28T15:46:57;2.08;;;1.88;;
55037;SDS011;40937;53.594;10.034;2023-02-28T15:49:28;7.03;;;2.67;;
55037;SDS011;40937;53.594;10.034;2023-02-28T15:52:00;3.35;;;1.80;;